TAF Text Data
IDs:
Format:
Raw Decoded Include METAR

Data at: 2130 UTC 20 Oct 2018

TAF for:KPDX (Portland Intl Arpt, OR, US) issued at 2107 UTC 20 Oct 2018
Text:KPDX 202107Z 2021/2118 29009KT P6SM SKC
Forecast period:2100 UTC 20 October 2018 to 0100 UTC 21 October 2018
Forecast type:FROM: standard forecast or significant change
Winds:from the WNW (290 degrees) at 10 MPH (9 knots; 4.6 m/s)
Visibility:6 or more sm (10+ km)
Ceiling:at least 12,000 feet AGL
Clouds:clear skies
Text:FM210100 32006KT P6SM SKC
Forecast period:0100 to 0700 UTC 21 October 2018
Forecast type:FROM: standard forecast or significant change
Winds:from the NW (320 degrees) at 7 MPH (6 knots; 3.1 m/s)
Visibility:6 or more sm (10+ km)
Ceiling:at least 12,000 feet AGL
Clouds:clear skies
Text:FM210700 VRB03KT P6SM SKC
Forecast period:0700 to 1000 UTC 21 October 2018
Forecast type:FROM: standard forecast or significant change
Winds:variable direction winds at 3 MPH (3 knots; 1.5 m/s)
Visibility:6 or more sm (10+ km)
Ceiling:at least 12,000 feet AGL
Clouds:clear skies
Text:FM211000 VRB03KT 3SM BR BKN003
Forecast period:1000 to 1800 UTC 21 October 2018
Forecast type:FROM: standard forecast or significant change
Winds:variable direction winds at 3 MPH (3 knots; 1.5 m/s)
Visibility: 3 sm ( 5 km)
Ceiling:300 feet AGL
Clouds: broken clouds at 300 feet AGL
Weather:BR (mist)